sensor_id;sensor_type;location;lat;lon;timestamp;temperature;humidity
66582;SHT31;53438;48.898;2.308;2022-07-29T03:00:11;21.18;46.85
66582;SHT31;53438;48.898;2.308;2022-07-29T03:02:39;20.79;49.07
66582;SHT31;53438;48.898;2.308;2022-07-29T03:05:10;20.37;50.89
66582;SHT31;53438;48.898;2.308;2022-07-29T03:07:37;20.25;51.62
66582;SHT31;53438;48.898;2.308;2022-07-29T03:10:05;20.09;52.02
66582;SHT31;53438;48.898;2.308;2022-07-29T03:12:31;19.97;52.48
66582;SHT31;53438;48.898;2.308;2022-07-29T03:14:58;19.89;52.47
66582;SHT31;53438;48.898;2.308;2022-07-29T03:17:24;20.01;52.31
66582;SHT31;53438;48.898;2.308;2022-07-29T03:19:50;20.05;52.13
66582;SHT31;53438;48.898;2.308;2022-07-29T03:22:15;20.21;51.46
66582;SHT31;53438;48.898;2.308;2022-07-29T03:24:41;19.98;51.84
66582;SHT31;53438;48.898;2.308;2022-07-29T03:27:06;20.26;51.17
66582;SHT31;53438;48.898;2.308;2022-07-29T03:29:32;19.98;51.89
66582;SHT31;53438;48.898;2.308;2022-07-29T03:31:57;19.97;51.95
66582;SHT31;53438;48.898;2.308;2022-07-29T03:34:23;20.07;51.67
66582;SHT31;53438;48.898;2.308;2022-07-29T03:36:49;19.89;52.00
66582;SHT31;53438;48.898;2.308;2022-07-29T03:39:23;19.98;51.96
66582;SHT31;53438;48.898;2.308;2022-07-29T03:41:53;20.25;51.34
66582;SHT31;53438;48.898;2.308;2022-07-29T03:44:21;20.40;50.88
66582;SHT31;53438;48.898;2.308;2022-07-29T03:46:48;20.60;50.49
66582;SHT31;53438;48.898;2.308;2022-07-29T03:49:16;20.45;50.41
66582;SHT31;53438;48.898;2.308;2022-07-29T03:51:42;20.53;50.56
66582;SHT31;53438;48.898;2.308;2022-07-29T03:54:07;20.09;51.40
66582;SHT31;53438;48.898;2.308;2022-07-29T03:56:38;20.08;51.30
66582;SHT31;53438;48.898;2.308;2022-07-29T03:59:04;20.21;50.96
66582;SHT31;53438;48.898;2.308;2022-07-29T04:01:32;20.33;50.47
66582;SHT31;53438;48.898;2.308;2022-07-29T04:03:59;20.42;49.85
66582;SHT31;53438;48.898;2.308;2022-07-29T04:06:25;20.19;50.22
66582;SHT31;53438;48.898;2.308;2022-07-29T04:08:51;20.36;49.85
66582;SHT31;53438;48.898;2.308;2022-07-29T04:11:16;20.42;49.61
66582;SHT31;53438;48.898;2.308;2022-07-29T04:13:42;19.94;50.29
66582;SHT31;53438;48.898;2.308;2022-07-29T04:16:07;19.89;50.52
66582;SHT31;53438;48.898;2.308;2022-07-29T04:18:32;20.12;50.19
66582;SHT31;53438;48.898;2.308;2022-07-29T04:20:58;20.25;49.95
66582;SHT31;53438;48.898;2.308;2022-07-29T04:23:26;20.39;49.34
66582;SHT31;53438;48.898;2.308;2022-07-29T04:25:51;19.61;51.31
66582;SHT31;53438;48.898;2.308;2022-07-29T04:28:17;19.57;51.55
66582;SHT31;53438;48.898;2.308;2022-07-29T04:30:42;19.87;50.90
66582;SHT31;53438;48.898;2.308;2022-07-29T04:33:08;20.11;50.17
66582;SHT31;53438;48.898;2.308;2022-07-29T04:35:36;20.26;49.70
66582;SHT31;53438;48.898;2.308;2022-07-29T04:38:01;20.21;49.86
66582;SHT31;53438;48.898;2.308;2022-07-29T04:40:27;20.12;49.78
66582;SHT31;53438;48.898;2.308;2022-07-29T04:42:54;20.32;49.43
66582;SHT31;53438;48.898;2.308;2022-07-29T04:45:19;20.36;49.15
66582;SHT31;53438;48.898;2.308;2022-07-29T04:47:45;20.47;48.70
66582;SHT31;53438;48.898;2.308;2022-07-29T04:50:10;19.63;50.47
66582;SHT31;53438;48.898;2.308;2022-07-29T04:52:36;19.66;50.28
66582;SHT31;53438;48.898;2.308;2022-07-29T04:55:03;19.34;51.34
66582;SHT31;53438;48.898;2.308;2022-07-29T04:57:28;19.58;50.81
66582;SHT31;53438;48.898;2.308;2022-07-29T04:59:54;19.84;49.99
66582;SHT31;53438;48.898;2.308;2022-07-29T05:02:20;19.99;49.52
66582;SHT31;53438;48.898;2.308;2022-07-29T05:04:47;19.97;49.64
66582;SHT31;53438;48.898;2.308;2022-07-29T05:07:12;20.08;49.13
66582;SHT31;53438;48.898;2.308;2022-07-29T05:09:37;19.84;49.86
66582;SHT31;53438;48.898;2.308;2022-07-29T05:12:03;19.82;49.49
66582;SHT31;53438;48.898;2.308;2022-07-29T05:14:28;20.02;49.26
66582;SHT31;53438;48.898;2.308;2022-07-29T05:16:53;20.19;48.91
66582;SHT31;53438;48.898;2.308;2022-07-29T05:19:21;20.05;49.47
66582;SHT31;53438;48.898;2.308;2022-07-29T05:21:47;20.25;48.84
66582;SHT31;53438;48.898;2.308;2022-07-29T05:24:13;19.95;49.53
66582;SHT31;53438;48.898;2.308;2022-07-29T05:26:38;19.70;50.57
66582;SHT31;53438;48.898;2.308;2022-07-29T05:29:03;19.60;50.86
66582;SHT31;53438;48.898;2.308;2022-07-29T05:31:29;19.56;51.11
66582;SHT31;53438;48.898;2.308;2022-07-29T05:33:54;19.60;51.07
66582;SHT31;53438;48.898;2.308;2022-07-29T05:36:19;19.56;51.64
66582;SHT31;53438;48.898;2.308;2022-07-29T05:38:45;19.50;51.92
66582;SHT31;53438;48.898;2.308;2022-07-29T05:41:10;19.64;51.66
66582;SHT31;53438;48.898;2.308;2022-07-29T05:43:36;19.77;51.27
66582;SHT31;53438;48.898;2.308;2022-07-29T05:46:01;19.71;51.77
66582;SHT31;53438;48.898;2.308;2022-07-29T05:48:26;19.75;51.66
66582;SHT31;53438;48.898;2.308;2022-07-29T05:50:53;19.87;51.50
66582;SHT31;53438;48.898;2.308;2022-07-29T05:53:19;19.79;51.99
66582;SHT31;53438;48.898;2.308;2022-07-29T05:55:45;19.63;52.67
66582;SHT31;53438;48.898;2.308;2022-07-29T05:58:11;19.51;52.82
66582;SHT31;53438;48.898;2.308;2022-07-29T06:00:36;19.70;52.36
66582;SHT31;53438;48.898;2.308;2022-07-29T06:03:01;19.74;52.01
66582;SHT31;53438;48.898;2.308;2022-07-29T06:05:27;19.50;53.04
66582;SHT31;53438;48.898;2.308;2022-07-29T06:07:52;19.67;52.76
66582;SHT31;53438;48.898;2.308;2022-07-29T06:10:18;19.53;53.02
66582;SHT31;53438;48.898;2.308;2022-07-29T06:12:44;19.74;52.65
66582;SHT31;53438;48.898;2.308;2022-07-29T06:15:09;19.94;52.31
66582;SHT31;53438;48.898;2.308;2022-07-29T06:17:35;20.09;51.92
66582;SHT31;53438;48.898;2.308;2022-07-29T06:20:01;20.05;51.98
66582;SHT31;53438;48.898;2.308;2022-07-29T06:22:26;20.28;51.63
66582;SHT31;53438;48.898;2.308;2022-07-29T06:24:51;20.32;51.45
66582;SHT31;53438;48.898;2.308;2022-07-29T06:27:18;20.46;51.23
66582;SHT31;53438;48.898;2.308;2022-07-29T06:29:43;20.72;50.67
66582;SHT31;53438;48.898;2.308;2022-07-29T06:32:08;20.76;50.46
66582;SHT31;53438;48.898;2.308;2022-07-29T06:34:35;20.96;50.20
66582;SHT31;53438;48.898;2.308;2022-07-29T06:37:00;21.11;49.61
66582;SHT31;53438;48.898;2.308;2022-07-29T06:39:27;21.15;49.60
66582;SHT31;53438;48.898;2.308;2022-07-29T06:41:53;21.11;49.55
66582;SHT31;53438;48.898;2.308;2022-07-29T06:44:19;21.18;49.51
66582;SHT31;53438;48.898;2.308;2022-07-29T06:46:44;21.30;48.91
66582;SHT31;53438;48.898;2.308;2022-07-29T06:49:10;21.54;48.15
66582;SHT31;53438;48.898;2.308;2022-07-29T06:51:37;21.34;48.80
66582;SHT31;53438;48.898;2.308;2022-07-29T06:54:02;21.39;48.57
66582;SHT31;53438;48.898;2.308;2022-07-29T06:56:31;21.32;48.07
66582;SHT31;53438;48.898;2.308;2022-07-29T06:58:56;21.73;47.60
66582;SHT31;53438;48.898;2.308;2022-07-29T07:01:21;21.89;47.22
66582;SHT31;53438;48.898;2.308;2022-07-29T07:03:47;22.00;46.78
66582;SHT31;53438;48.898;2.308;2022-07-29T07:06:13;22.21;46.02
66582;SHT31;53438;48.898;2.308;2022-07-29T07:08:38;22.36;46.05
66582;SHT31;53438;48.898;2.308;2022-07-29T07:11:03;21.88;46.36
66582;SHT31;53438;48.898;2.308;2022-07-29T07:13:29;21.69;47.04
66582;SHT31;53438;48.898;2.308;2022-07-29T07:15:59;21.90;46.68
66582;SHT31;53438;48.898;2.308;2022-07-29T07:18:24;22.02;46.58
66582;SHT31;53438;48.898;2.308;2022-07-29T07:20:49;22.32;46.15
66582;SHT31;53438;48.898;2.308;2022-07-29T07:23:15;22.20;46.42
66582;SHT31;53438;48.898;2.308;2022-07-29T07:25:40;22.09;46.64
66582;SHT31;53438;48.898;2.308;2022-07-29T07:28:05;22.29;46.68
66582;SHT31;53438;48.898;2.308;2022-07-29T07:30:31;22.63;45.93
66582;SHT31;53438;48.898;2.308;2022-07-29T07:32:56;22.90;45.28
66582;SHT31;53438;48.898;2.308;2022-07-29T07:35:22;23.08;45.15
66582;SHT31;53438;48.898;2.308;2022-07-29T07:37:47;22.53;45.59
66582;SHT31;53438;48.898;2.308;2022-07-29T07:40:13;22.23;46.14
66582;SHT31;53438;48.898;2.308;2022-07-29T07:42:39;22.36;46.16
66582;SHT31;53438;48.898;2.308;2022-07-29T07:45:06;22.51;44.60
66582;SHT31;53438;48.898;2.308;2022-07-29T07:47:32;22.96;44.41
66582;SHT31;53438;48.898;2.308;2022-07-29T07:49:57;23.03;44.43
66582;SHT31;53438;48.898;2.308;2022-07-29T07:52:24;22.51;45.35
66582;SHT31;53438;48.898;2.308;2022-07-29T07:54:50;22.87;44.42
66582;SHT31;53438;48.898;2.308;2022-07-29T07:57:16;23.29;43.69
66582;SHT31;53438;48.898;2.308;2022-07-29T07:59:41;23.71;42.96
66582;SHT31;53438;48.898;2.308;2022-07-29T08:02:08;23.71;42.72
66582;SHT31;53438;48.898;2.308;2022-07-29T08:04:34;24.05;42.23
66582;SHT31;53438;48.898;2.308;2022-07-29T08:07:00;24.18;42.17
66582;SHT31;53438;48.898;2.308;2022-07-29T08:09:27;24.24;41.91
66582;SHT31;53438;48.898;2.308;2022-07-29T08:11:53;24.31;41.55
66582;SHT31;53438;48.898;2.308;2022-07-29T08:14:18;24.21;41.58
66582;SHT31;53438;48.898;2.308;2022-07-29T08:16:44;24.05;41.89
66582;SHT31;53438;48.898;2.308;2022-07-29T08:19:09;24.24;42.03
66582;SHT31;53438;48.898;2.308;2022-07-29T08:21:35;24.02;42.41
66582;SHT31;53438;48.898;2.308;2022-07-29T08:24:00;23.57;43.21
66582;SHT31;53438;48.898;2.308;2022-07-29T08:26:44;23.87;42.92
66582;SHT31;53438;48.898;2.308;2022-07-29T08:29:10;23.91;42.36
66582;SHT31;53438;48.898;2.308;2022-07-29T08:31:36;23.81;42.22
66582;SHT31;53438;48.898;2.308;2022-07-29T08:34:03;23.91;41.58
66582;SHT31;53438;48.898;2.308;2022-07-29T08:36:29;23.84;41.55
66582;SHT31;53438;48.898;2.308;2022-07-29T08:38:54;23.78;41.98
66582;SHT31;53438;48.898;2.308;2022-07-29T08:41:20;24.07;41.76
66582;SHT31;53438;48.898;2.308;2022-07-29T08:43:46;23.96;41.47
66582;SHT31;53438;48.898;2.308;2022-07-29T08:46:12;24.15;39.59
66582;SHT31;53438;48.898;2.308;2022-07-29T08:48:38;24.47;39.39
66582;SHT31;53438;48.898;2.308;2022-07-29T08:51:07;24.69;39.41
66582;SHT31;53438;48.898;2.308;2022-07-29T08:53:32;24.93;39.51
66582;SHT31;53438;48.898;2.308;2022-07-29T08:55:59;24.69;40.16
66582;SHT31;53438;48.898;2.308;2022-07-29T08:58:25;24.87;39.77
66582;SHT31;53438;48.898;2.308;2022-07-29T09:00:53;25.13;38.92
66582;SHT31;53438;48.898;2.308;2022-07-29T09:03:20;25.26;38.51
66582;SHT31;53438;48.898;2.308;2022-07-29T09:05:48;25.42;38.50
66582;SHT31;53438;48.898;2.308;2022-07-29T09:08:15;25.31;38.72
66582;SHT31;53438;48.898;2.308;2022-07-29T09:10:41;25.27;38.83
66582;SHT31;53438;48.898;2.308;2022-07-29T09:13:06;25.68;37.93
66582;SHT31;53438;48.898;2.308;2022-07-29T09:15:32;25.72;37.84
66582;SHT31;53438;48.898;2.308;2022-07-29T09:17:57;25.81;37.95
66582;SHT31;53438;48.898;2.308;2022-07-29T09:20:24;25.61;37.77
66582;SHT31;53438;48.898;2.308;2022-07-29T09:22:52;25.34;38.40
66582;SHT31;53438;48.898;2.308;2022-07-29T09:25:38;25.37;38.37
66582;SHT31;53438;48.898;2.308;2022-07-29T09:28:16;25.24;38.84
66582;SHT31;53438;48.898;2.308;2022-07-29T09:30:58;25.03;39.01
66582;SHT31;53438;48.898;2.308;2022-07-29T09:33:32;25.37;38.71
66582;SHT31;53438;48.898;2.308;2022-07-29T09:36:03;25.40;38.24
66582;SHT31;53438;48.898;2.308;2022-07-29T09:38:30;25.72;37.55
66582;SHT31;53438;48.898;2.308;2022-07-29T09:41:02;25.75;37.65
66582;SHT31;53438;48.898;2.308;2022-07-29T09:43:27;26.03;37.14
66582;SHT31;53438;48.898;2.308;2022-07-29T09:45:54;25.57;37.11
66582;SHT31;53438;48.898;2.308;2022-07-29T09:48:22;25.93;36.85
66582;SHT31;53438;48.898;2.308;2022-07-29T09:50:48;26.06;36.43
66582;SHT31;53438;48.898;2.308;2022-07-29T09:53:36;26.23;36.57
66582;SHT31;53438;48.898;2.308;2022-07-29T09:56:03;26.36;36.21
66582;SHT31;53438;48.898;2.308;2022-07-29T09:58:29;25.86;36.67
66582;SHT31;53438;48.898;2.308;2022-07-29T10:00:55;25.75;36.47
66582;SHT31;53438;48.898;2.308;2022-07-29T10:03:21;25.62;36.75
66582;SHT31;53438;48.898;2.308;2022-07-29T10:06:04;25.98;36.45
66582;SHT31;53438;48.898;2.308;2022-07-29T10:08:30;26.22;36.00
66582;SHT31;53438;48.898;2.308;2022-07-29T10:11:09;26.20;35.78
66582;SHT31;53438;48.898;2.308;2022-07-29T10:13:35;26.43;35.56
66582;SHT31;53438;48.898;2.308;2022-07-29T10:16:00;26.43;35.36
66582;SHT31;53438;48.898;2.308;2022-07-29T10:18:26;26.06;35.84
66582;SHT31;53438;48.898;2.308;2022-07-29T10:20:52;26.39;35.69
66582;SHT31;53438;48.898;2.308;2022-07-29T10:23:18;26.57;35.53
66582;SHT31;53438;48.898;2.308;2022-07-29T10:25:45;26.56;35.11
66582;SHT31;53438;48.898;2.308;2022-07-29T10:28:11;26.77;35.21
66582;SHT31;53438;48.898;2.308;2022-07-29T10:30:37;26.73;35.12
66582;SHT31;53438;48.898;2.308;2022-07-29T10:41:37;26.84;34.89
66582;SHT31;53438;48.898;2.308;2022-07-29T10:44:09;27.04;34.76
66582;SHT31;53438;48.898;2.308;2022-07-29T10:46:39;27.01;34.77
66582;SHT31;53438;48.898;2.308;2022-07-29T10:52:04;26.90;34.70
66582;SHT31;53438;48.898;2.308;2022-07-29T10:57:17;26.73;34.78
66582;SHT31;53438;48.898;2.308;2022-07-29T10:59:47;27.15;34.41
66582;SHT31;53438;48.898;2.308;2022-07-29T11:07:21;27.09;34.49
66582;SHT31;53438;48.898;2.308;2022-07-29T11:15:07;27.28;34.34
66582;SHT31;53438;48.898;2.308;2022-07-29T11:23:00;26.92;35.16
66582;SHT31;53438;48.898;2.308;2022-07-29T11:25:26;27.28;34.52
66582;SHT31;53438;48.898;2.308;2022-07-29T11:27:53;27.38;34.33
66582;SHT31;53438;48.898;2.308;2022-07-29T11:30:19;27.36;34.39
66582;SHT31;53438;48.898;2.308;2022-07-29T11:32:45;27.59;34.13
66582;SHT31;53438;48.898;2.308;2022-07-29T11:35:20;27.57;34.04
66582;SHT31;53438;48.898;2.308;2022-07-29T11:41:25;27.39;33.95
66582;SHT31;53438;48.898;2.308;2022-07-29T11:43:59;27.77;33.95
66582;SHT31;53438;48.898;2.308;2022-07-29T11:49:12;28.14;33.34
66582;SHT31;53438;48.898;2.308;2022-07-29T11:51:38;28.33;33.35
66582;SHT31;53438;48.898;2.308;2022-07-29T11:54:05;28.16;32.90
66582;SHT31;53438;48.898;2.308;2022-07-29T11:56:34;28.01;32.91
66582;SHT31;53438;48.898;2.308;2022-07-29T11:59:05;28.24;33.18
66582;SHT31;53438;48.898;2.308;2022-07-29T12:01:31;27.71;33.43
66582;SHT31;53438;48.898;2.308;2022-07-29T12:04:06;28.01;33.31
66582;SHT31;53438;48.898;2.308;2022-07-29T12:06:34;28.18;33.03
66582;SHT31;53438;48.898;2.308;2022-07-29T12:08:59;28.33;32.79
66582;SHT31;53438;48.898;2.308;2022-07-29T12:11:25;28.52;32.73
66582;SHT31;53438;48.898;2.308;2022-07-29T12:13:52;28.34;32.44
66582;SHT31;53438;48.898;2.308;2022-07-29T12:16:19;28.25;32.52
66582;SHT31;53438;48.898;2.308;2022-07-29T12:18:56;28.55;32.11
66582;SHT31;53438;48.898;2.308;2022-07-29T12:21:22;28.22;32.12
66582;SHT31;53438;48.898;2.308;2022-07-29T12:23:54;28.16;32.28
66582;SHT31;53438;48.898;2.308;2022-07-29T12:26:20;28.14;32.41
66582;SHT31;53438;48.898;2.308;2022-07-29T12:28:46;28.08;32.57
66582;SHT31;53438;48.898;2.308;2022-07-29T12:31:15;28.27;32.47
66582;SHT31;53438;48.898;2.308;2022-07-29T12:33:41;28.41;32.10
66582;SHT31;53438;48.898;2.308;2022-07-29T12:36:07;28.43;31.93
66582;SHT31;53438;48.898;2.308;2022-07-29T12:38:33;28.37;32.21
66582;SHT31;53438;48.898;2.308;2022-07-29T12:40:59;28.18;32.43
66582;SHT31;53438;48.898;2.308;2022-07-29T12:43:25;28.54;32.01
66582;SHT31;53438;48.898;2.308;2022-07-29T12:45:56;28.72;31.89
66582;SHT31;53438;48.898;2.308;2022-07-29T12:48:42;28.80;31.78
66582;SHT31;53438;48.898;2.308;2022-07-29T12:51:09;28.86;31.75
66582;SHT31;53438;48.898;2.308;2022-07-29T12:53:36;28.59;31.97
66582;SHT31;53438;48.898;2.308;2022-07-29T12:56:03;28.61;31.69
66582;SHT31;53438;48.898;2.308;2022-07-29T12:58:38;28.72;31.93
66582;SHT31;53438;48.898;2.308;2022-07-29T13:03:48;28.74;31.58
66582;SHT31;53438;48.898;2.308;2022-07-29T13:11:39;28.37;32.14
66582;SHT31;53438;48.898;2.308;2022-07-29T13:14:07;28.56;32.15
66582;SHT31;53438;48.898;2.308;2022-07-29T13:16:34;28.59;31.85
66582;SHT31;53438;48.898;2.308;2022-07-29T13:19:04;28.72;31.56
66582;SHT31;53438;48.898;2.308;2022-07-29T13:21:29;28.82;31.35
66582;SHT31;53438;48.898;2.308;2022-07-29T13:23:55;28.98;31.22
66582;SHT31;53438;48.898;2.308;2022-07-29T13:26:20;29.15;31.13
66582;SHT31;53438;48.898;2.308;2022-07-29T13:28:45;29.02;31.28
66582;SHT31;53438;48.898;2.308;2022-07-29T13:31:11;28.65;31.38
66582;SHT31;53438;48.898;2.308;2022-07-29T13:33:36;28.37;31.71
66582;SHT31;53438;48.898;2.308;2022-07-29T13:36:01;28.49;31.96
66582;SHT31;53438;48.898;2.308;2022-07-29T13:38:27;28.64;31.86
66582;SHT31;53438;48.898;2.308;2022-07-29T13:40:52;28.91;31.57
66582;SHT31;53438;48.898;2.308;2022-07-29T13:43:17;28.69;31.73
66582;SHT31;53438;48.898;2.308;2022-07-29T13:45:43;28.91;31.39
66582;SHT31;53438;48.898;2.308;2022-07-29T13:48:08;28.79;31.78
66582;SHT31;53438;48.898;2.308;2022-07-29T13:50:34;28.71;31.38
66582;SHT31;53438;48.898;2.308;2022-07-29T13:52:59;28.62;31.79
66582;SHT31;53438;48.898;2.308;2022-07-29T13:55:24;28.44;32.17
66582;SHT31;53438;48.898;2.308;2022-07-29T13:57:51;28.47;32.17
66582;SHT31;53438;48.898;2.308;2022-07-29T14:00:16;28.61;32.02
66582;SHT31;53438;48.898;2.308;2022-07-29T14:02:43;28.69;32.42
66582;SHT31;53438;48.898;2.308;2022-07-29T14:05:09;28.45;32.14
66582;SHT31;53438;48.898;2.308;2022-07-29T14:07:35;28.54;31.93
66582;SHT31;53438;48.898;2.308;2022-07-29T14:10:01;28.69;31.66
66582;SHT31;53438;48.898;2.308;2022-07-29T14:12:26;28.79;31.75
66582;SHT31;53438;48.898;2.308;2022-07-29T14:14:52;29.03;31.50
66582;SHT31;53438;48.898;2.308;2022-07-29T14:17:17;29.02;31.48
66582;SHT31;53438;48.898;2.308;2022-07-29T14:19:43;28.95;31.63
66582;SHT31;53438;48.898;2.308;2022-07-29T14:22:09;28.64;31.67
66582;SHT31;53438;48.898;2.308;2022-07-29T14:24:35;28.58;31.67
66582;SHT31;53438;48.898;2.308;2022-07-29T14:27:01;28.62;31.90
66582;SHT31;53438;48.898;2.308;2022-07-29T14:29:27;28.69;31.72
66582;SHT31;53438;48.898;2.308;2022-07-29T14:31:53;28.68;31.96
66582;SHT31;53438;48.898;2.308;2022-07-29T14:34:19;28.86;31.72
66582;SHT31;53438;48.898;2.308;2022-07-29T14:36:45;28.85;31.53
66582;SHT31;53438;48.898;2.308;2022-07-29T14:39:11;28.95;31.41
66582;SHT31;53438;48.898;2.308;2022-07-29T14:41:36;28.88;31.49
66582;SHT31;53438;48.898;2.308;2022-07-29T14:44:03;28.91;31.50
66582;SHT31;53438;48.898;2.308;2022-07-29T14:46:29;28.91;31.38
66582;SHT31;53438;48.898;2.308;2022-07-29T14:48:54;28.93;31.34
66582;SHT31;53438;48.898;2.308;2022-07-29T14:51:19;28.89;31.39
66582;SHT31;53438;48.898;2.308;2022-07-29T14:53:45;29.02;31.50
66582;SHT31;53438;48.898;2.308;2022-07-29T14:56:11;29.16;31.30
66582;SHT31;53438;48.898;2.308;2022-07-29T14:58:36;29.12;31.24
66582;SHT31;53438;48.898;2.308;2022-07-29T15:01:03;28.83;31.43
66582;SHT31;53438;48.898;2.308;2022-07-29T15:03:28;28.82;31.65
66582;SHT31;53438;48.898;2.308;2022-07-29T15:05:54;28.85;31.65
66582;SHT31;53438;48.898;2.308;2022-07-29T15:08:20;28.95;31.31
66582;SHT31;53438;48.898;2.308;2022-07-29T15:10:45;28.82;31.48
66582;SHT31;53438;48.898;2.308;2022-07-29T15:13:11;28.80;31.44
66582;SHT31;53438;48.898;2.308;2022-07-29T15:15:36;29.09;30.97
66582;SHT31;53438;48.898;2.308;2022-07-29T15:18:02;29.17;30.81
66582;SHT31;53438;48.898;2.308;2022-07-29T15:20:27;29.22;30.28
66582;SHT31;53438;48.898;2.308;2022-07-29T15:22:54;29.74;30.08
66582;SHT31;53438;48.898;2.308;2022-07-29T15:25:23;29.92;29.58
66582;SHT31;53438;48.898;2.308;2022-07-29T15:27:49;30.29;29.38
66582;SHT31;53438;48.898;2.308;2022-07-29T15:30:15;30.46;28.76
66582;SHT31;53438;48.898;2.308;2022-07-29T15:32:45;30.55;28.70
66582;SHT31;53438;48.898;2.308;2022-07-29T15:35:10;30.67;28.66
66582;SHT31;53438;48.898;2.308;2022-07-29T15:37:38;30.76;28.55
66582;SHT31;53438;48.898;2.308;2022-07-29T15:40:04;30.83;28.54
66582;SHT31;53438;48.898;2.308;2022-07-29T15:42:30;30.36;28.75
66582;SHT31;53438;48.898;2.308;2022-07-29T15:44:55;30.31;29.37
66582;SHT31;53438;48.898;2.308;2022-07-29T15:47:21;30.29;29.11
66582;SHT31;53438;48.898;2.308;2022-07-29T15:49:47;30.44;29.14
66582;SHT31;53438;48.898;2.308;2022-07-29T15:52:14;30.15;29.09
66582;SHT31;53438;48.898;2.308;2022-07-29T15:54:41;30.46;28.93
66582;SHT31;53438;48.898;2.308;2022-07-29T15:57:06;30.47;29.09
66582;SHT31;53438;48.898;2.308;2022-07-29T15:59:32;29.89;29.40
66582;SHT31;53438;48.898;2.308;2022-07-29T16:01:58;29.95;29.35
66582;SHT31;53438;48.898;2.308;2022-07-29T16:04:24;29.65;29.97
66582;SHT31;53438;48.898;2.308;2022-07-29T16:06:50;29.80;30.16
66582;SHT31;53438;48.898;2.308;2022-07-29T16:09:16;29.63;30.33
66582;SHT31;53438;48.898;2.308;2022-07-29T16:11:42;29.80;30.36
66582;SHT31;53438;48.898;2.308;2022-07-29T16:14:08;29.50;30.19
66582;SHT31;53438;48.898;2.308;2022-07-29T16:16:36;29.46;30.32
66582;SHT31;53438;48.898;2.308;2022-07-29T16:19:03;29.58;30.31
66582;SHT31;53438;48.898;2.308;2022-07-29T16:21:28;29.57;30.34
66582;SHT31;53438;48.898;2.308;2022-07-29T16:23:55;29.46;30.24
66582;SHT31;53438;48.898;2.308;2022-07-29T16:26:21;29.46;30.36
66582;SHT31;53438;48.898;2.308;2022-07-29T16:28:46;29.54;30.34
66582;SHT31;53438;48.898;2.308;2022-07-29T16:31:12;29.61;30.30
66582;SHT31;53438;48.898;2.308;2022-07-29T16:33:37;29.57;30.53
66582;SHT31;53438;48.898;2.308;2022-07-29T16:36:03;29.40;30.55
66582;SHT31;53438;48.898;2.308;2022-07-29T16:38:29;29.47;30.54
66582;SHT31;53438;48.898;2.308;2022-07-29T16:40:54;29.46;30.85
66582;SHT31;53438;48.898;2.308;2022-07-29T16:43:19;29.43;30.77
66582;SHT31;53438;48.898;2.308;2022-07-29T16:45:45;29.42;30.73
66582;SHT31;53438;48.898;2.308;2022-07-29T16:48:11;29.50;30.59
66582;SHT31;53438;48.898;2.308;2022-07-29T16:50:37;29.54;30.53
66582;SHT31;53438;48.898;2.308;2022-07-29T16:53:02;29.47;30.61
66582;SHT31;53438;48.898;2.308;2022-07-29T16:55:28;29.57;30.53
66582;SHT31;53438;48.898;2.308;2022-07-29T16:57:53;29.67;30.63
66582;SHT31;53438;48.898;2.308;2022-07-29T17:00:20;29.61;30.60
66582;SHT31;53438;48.898;2.308;2022-07-29T17:02:45;29.61;30.85
66582;SHT31;53438;48.898;2.308;2022-07-29T17:05:11;29.57;30.71
66582;SHT31;53438;48.898;2.308;2022-07-29T17:07:40;29.47;30.74
66582;SHT31;53438;48.898;2.308;2022-07-29T17:10:06;29.51;30.88
66582;SHT31;53438;48.898;2.308;2022-07-29T17:12:36;29.44;30.77
66582;SHT31;53438;48.898;2.308;2022-07-29T17:15:07;29.36;30.88
66582;SHT31;53438;48.898;2.308;2022-07-29T17:17:33;29.30;31.11
66582;SHT31;53438;48.898;2.308;2022-07-29T17:19:58;29.38;31.00
66582;SHT31;53438;48.898;2.308;2022-07-29T17:22:24;29.27;31.24
66582;SHT31;53438;48.898;2.308;2022-07-29T17:24:49;29.26;31.29
66582;SHT31;53438;48.898;2.308;2022-07-29T17:27:15;29.22;31.35
66582;SHT31;53438;48.898;2.308;2022-07-29T17:29:41;29.23;31.60
66582;SHT31;53438;48.898;2.308;2022-07-29T17:32:08;28.95;31.71
66582;SHT31;53438;48.898;2.308;2022-07-29T17:34:38;28.99;31.88
66582;SHT31;53438;48.898;2.308;2022-07-29T17:37:05;28.96;32.01
66582;SHT31;53438;48.898;2.308;2022-07-29T17:39:32;28.93;32.62
66582;SHT31;53438;48.898;2.308;2022-07-29T17:41:59;29.00;31.88
66582;SHT31;53438;48.898;2.308;2022-07-29T17:44:24;28.98;32.16
66582;SHT31;53438;48.898;2.308;2022-07-29T17:46:50;28.91;32.08
66582;SHT31;53438;48.898;2.308;2022-07-29T17:49:15;28.96;32.34
66582;SHT31;53438;48.898;2.308;2022-07-29T17:51:40;28.96;32.11
66582;SHT31;53438;48.898;2.308;2022-07-29T17:54:06;28.91;32.24
66582;SHT31;53438;48.898;2.308;2022-07-29T17:56:31;28.98;32.03
66582;SHT31;53438;48.898;2.308;2022-07-29T17:58:57;28.92;32.24
66582;SHT31;53438;48.898;2.308;2022-07-29T18:01:25;28.98;32.19
66582;SHT31;53438;48.898;2.308;2022-07-29T18:03:51;28.89;32.16
66582;SHT31;53438;48.898;2.308;2022-07-29T18:06:16;28.88;32.37
66582;SHT31;53438;48.898;2.308;2022-07-29T18:08:42;28.80;32.58
66582;SHT31;53438;48.898;2.308;2022-07-29T18:11:12;28.80;32.73
66582;SHT31;53438;48.898;2.308;2022-07-29T18:13:37;28.72;32.68
66582;SHT31;53438;48.898;2.308;2022-07-29T18:16:03;28.65;32.87
66582;SHT31;53438;48.898;2.308;2022-07-29T18:18:28;28.58;32.83
66582;SHT31;53438;48.898;2.308;2022-07-29T18:20:54;28.62;32.98
66582;SHT31;53438;48.898;2.308;2022-07-29T18:23:19;28.55;32.94
66582;SHT31;53438;48.898;2.308;2022-07-29T18:25:45;28.55;33.21
66582;SHT31;53438;48.898;2.308;2022-07-29T18:28:11;28.40;33.18
66582;SHT31;53438;48.898;2.308;2022-07-29T18:30:36;28.40;33.36
66582;SHT31;53438;48.898;2.308;2022-07-29T18:33:02;28.43;33.28
66582;SHT31;53438;48.898;2.308;2022-07-29T18:35:28;28.40;33.43
66582;SHT31;53438;48.898;2.308;2022-07-29T18:37:53;28.41;33.35
66582;SHT31;53438;48.898;2.308;2022-07-29T18:40:20;28.33;33.51
66582;SHT31;53438;48.898;2.308;2022-07-29T18:42:48;28.31;33.72
66582;SHT31;53438;48.898;2.308;2022-07-29T18:45:13;28.29;33.47
66582;SHT31;53438;48.898;2.308;2022-07-29T18:47:38;28.28;33.58
66582;SHT31;53438;48.898;2.308;2022-07-29T18:50:05;28.27;33.80
66582;SHT31;53438;48.898;2.308;2022-07-29T18:52:30;28.17;34.25
66582;SHT31;53438;48.898;2.308;2022-07-29T18:54:55;28.11;34.44
66582;SHT31;53438;48.898;2.308;2022-07-29T18:57:21;28.06;34.66
66582;SHT31;53438;48.898;2.308;2022-07-29T18:59:47;28.10;34.72
66582;SHT31;53438;48.898;2.308;2022-07-29T19:02:14;28.13;34.72
66582;SHT31;53438;48.898;2.308;2022-07-29T19:04:40;28.25;34.61
66582;SHT31;53438;48.898;2.308;2022-07-29T19:07:06;28.04;34.90
66582;SHT31;53438;48.898;2.308;2022-07-29T19:09:31;27.98;34.83